Map

Track Data

SID SEASON NUMBER BASIN SUBBASIN NAME ISO_TIME NATURE LAT LON WMO_WIND WMO_PRES WMO_AGENCY TRACK_TYPE DIST2LAND LANDFALL IFLAG USA_AGENCY USA_ATCF_ID USA_LAT USA_LON USA_RECORD USA_STATUS USA_WIND USA_PRES USA_SSHS USA_R34_NE USA_R34_SE USA_R34_SW USA_R34_NW USA_R50_NE USA_R50_SE USA_R50_SW USA_R50_NW USA_R64_NE USA_R64_SE USA_R64_SW USA_R64_NW USA_POCI USA_ROCI USA_RMW USA_EYE TOKYO_LAT TOKYO_LON TOKYO_GRADE TOKYO_WIND TOKYO_PRES TOKYO_R50_DIR TOKYO_R50_LONG TOKYO_R50_SHORT TOKYO_R30_DIR TOKYO_R30_LONG TOKYO_R30_SHORT TOKYO_LAND CMA_LAT CMA_LON CMA_CAT CMA_WIND CMA_PRES HKO_LAT HKO_LON HKO_CAT HKO_WIND HKO_PRES NEWDELHI_LAT NEWDELHI_LON NEWDELHI_GRADE NEWDELHI_WIND NEWDELHI_PRES NEWDELHI_CI NEWDELHI_DP NEWDELHI_POCI REUNION_LAT REUNION_LON REUNION_TYPE REUNION_WIND REUNION_PRES REUNION_TNUM REUNION_CI REUNION_RMW REUNION_R34_NE REUNION_R34_SE REUNION_R34_SW REUNION_R34_NW REUNION_R50_NE REUNION_R50_SE REUNION_R50_SW REUNION_R50_NW REUNION_R64_NE REUNION_R64_SE REUNION_R64_SW REUNION_R64_NW BOM_LAT BOM_LON BOM_TYPE BOM_WIND BOM_PRES BOM_TNUM BOM_CI BOM_RMW BOM_R34_NE BOM_R34_SE BOM_R34_SW BOM_R34_NW BOM_R50_NE BOM_R50_SE BOM_R50_SW BOM_R50_NW BOM_R64_NE BOM_R64_SE BOM_R64_SW BOM_R64_NW BOM_ROCI BOM_POCI BOM_EYE BOM_POS_METHOD BOM_PRES_METHOD NADI_LAT NADI_LON NADI_CAT NADI_WIND NADI_PRES WELLINGTON_LAT WELLINGTON_LON WELLINGTON_WIND WELLINGTON_PRES DS824_LAT DS824_LON DS824_STAGE DS824_WIND DS824_PRES TD9636_LAT TD9636_LON TD9636_STAGE TD9636_WIND TD9636_PRES TD9635_LAT TD9635_LON TD9635_WIND TD9635_PRES TD9635_ROCI NEUMANN_LAT NEUMANN_LON NEUMANN_CLASS NEUMANN_WIND NEUMANN_PRES MLC_LAT MLC_LON MLC_CLASS MLC_WIND MLC_PRES USA_GUST BOM_GUST BOM_GUST_PER REUNION_GUST REUNION_GUST_PER USA_SEAHGT USA_SEARAD_NE USA_SEARAD_SE USA_SEARAD_SW USA_SEARAD_NW STORM_SPEED STORM_DIR
1978287N08166 1978 108 WP MM PHYLLIS 1978-10-13 12:00:00 TS 7.80000 165.500 main 1883 1883 O________OO___ jtwc_wp WP271978 7.80000 165.500 TD 15 -1 7.80000 165.500 TC 15 7.80000 165.500 1 15 9 328
1978287N08166 1978 108 WP MM PHYLLIS 1978-10-13 15:00:00 TS 8.19456 165.246 main 1910 1910 P________PP___ WP271978 8.19252 165.253 TD 15 -1 8.19252 165.253 TC 15 8.19864 165.233 1 15 10 328
1978287N08166 1978 108 WP MM PHYLLIS 1978-10-13 18:00:00 TS 8.60258 164.991 main 1933 1933 O________OP___ jtwc_wp WP271978 8.60000 165.000 TD 15 -1 8.60000 165.000 TC 15 8.60775 164.973 1 15 10 329
1978287N08166 1978 108 WP MM PHYLLIS 1978-10-13 21:00:00 TS 9.03599 164.737 main 1952 1952 P________PP___ WP271978 9.03500 164.742 TD 15 -1 9.03500 164.742 TC 15 9.03797 164.726 1 15 10 332
1978287N08166 1978 108 WP MM PHYLLIS 1978-10-14 00:00:00 TS 9.50000 164.500 main 1984 1984 O________OO___ jtwc_wp WP271978 9.50000 164.500 TD 15 -1 9.50000 164.500 TC 15 9.50000 164.500 1 15 11 335
1978287N08166 1978 108 WP MM PHYLLIS 1978-10-14 03:00:00 TS 9.99005 164.294 main 2012 2012 P________PP___ WP271978 9.98498 164.292 TD 15 -1 9.98498 164.292 TC 15 10.0002 164.297 1 15 11 339
1978287N08166 1978 108 WP MM PHYLLIS 1978-10-14 06:00:00 TS 10.5091 164.102 main 2042 2042 O________OP___ jtwc_wp WP271978 10.5000 164.100 TD 15 -1 10.5000 164.100 TC 15 10.5273 164.107 1 15 11 340
1978287N08166 1978 108 WP MM PHYLLIS 1978-10-14 09:00:00 TS 11.0503 163.909 main 2082 2082 P________PP___ WP271978 11.0425 163.907 TD 15 -1 11.0425 163.907 TC 15 11.0658 163.913 1 15 12 340
1978287N08166 1978 108 WP MM PHYLLIS 1978-10-14 12:00:00 TS 11.6000 163.700 main 2112 2112 O________OO___ jtwc_wp WP271978 11.6000 163.700 TD 15 -1 11.6000 163.700 TC 15 11.6000 163.700 1 15 12 338
1978287N08166 1978 108 WP MM PHYLLIS 1978-10-14 15:00:00 TS 12.1606 163.458 main 2152 2146 P________PP___ WP271978 12.1650 163.465 TD 15 -1 12.1650 163.465 TC 15 12.1518 163.443 1 16 12 335
1978287N08166 1978 108 WP MM PHYLLIS 1978-10-14 18:00:00 TS 12.6967 163.188 main 2178 2178 O________OP___ jtwc_wp WP271978 12.7000 163.200 TD 15 -1 12.7000 163.200 TC 15 12.6900 163.165 1 17 12 332
1978287N08166 1978 108 WP MM PHYLLIS 1978-10-14 21:00:00 TS 13.1910 162.893 main 2206 2206 P________PP___ WP271978 13.1950 162.900 TD 17 -1 13.1950 162.900 TC 17 13.1831 162.880 1 18 10 328
1978287N08166 1978 108 WP MM PHYLLIS 1978-10-15 00:00:00 TS 13.5143 162.657 1010 tokyo main 2222 2216 OOO______OO___ jtwc_wp WP271978 13.6000 162.600 TD 20 -1 13.0000 163.000 2 1010 0 0 0 13.0000 163.000 0 1004 13.6000 162.600 TC 20 13.6000 162.600 1 20 8 327
1978287N08166 1978 108 WP MM PHYLLIS 1978-10-15 03:00:00 TS 13.8564 162.458 main 2248 2243 PPP______PP___ WP271978 13.8874 162.342 TD 20 -1 13.7324 162.803 2 1009 0 0 13.7773 162.815 0 1004 13.8874 162.342 TC 20 13.8958 162.338 1 21 8 329
1978287N08166 1978 108 WP MM PHYLLIS 1978-10-15 06:00:00 TS 14.2039 162.230 1008 tokyo main 2259 2259 OOO______OP___ jtwc_wp WP271978 14.1000 162.100 TD 20 -1 14.3000 162.500 2 1008 0 0 0 14.5000 162.500 0 1004 14.1000 162.100 TC 20 14.1173 162.084 1 22 8 321
1978287N08166 1978 108 WP MM PHYLLIS 1978-10-15 09:00:00 TS 14.5171 161.915 main 2271 2269 PPP______PP___ WP271978 14.2925 161.850 TD 22 -1 14.5902 162.042 2 1008 0 0 15.1053 161.993 0 1002 14.2925 161.850 TC 22 14.3052 161.838 1 23 8 310
1978287N08166 1978 108 WP MM PHYLLIS 1978-10-15 12:00:00 TS 14.7400 161.580 1008 tokyo main 2274 2273 OOO______OO___ jtwc_wp WP271978 14.5000 161.600 TD 25 -1 14.7000 161.600 2 1008 0 0 0 15.5000 161.500 1 23 1000 14.5000 161.600 TC 25 14.5000 161.600 1 25 7 307
1978287N08166 1978 108 WP MM PHYLLIS 1978-10-15 15:00:00 TS 14.9421 161.336 main 2277 2277 PPP______PP___ WP271978 14.7925 161.343 TD 25 -1 14.7273 161.370 2 1006 0 0 15.6173 161.255 1 23 1000 14.7925 161.343 TC 25 14.7808 161.372 1 26 6 312
1978287N08166 1978 108 WP MM PHYLLIS 1978-10-15 18:00:00 TS 15.1345 161.130 1004 tokyo main 2287 2287 OOO______OP___ jtwc_wp WP271978 15.1000 161.100 TD 25 -1 14.8000 161.200 2 1004 0 0 0 15.6000 161.100 1 23 1000 15.1000 161.100 TC 25 15.0723 161.150 1 27 6 317
1978287N08166 1978 108 WP MM PHYLLIS 1978-10-15 21:00:00 TS 15.3735 160.916 main 2306 2306 PPP______PP___ WP271978 15.3724 160.900 TD 27 -1 15.1275 160.950 2 1002 0 0 15.6425 160.900 1 26 998 15.3724 160.900 TC 27 15.3527 160.928 1 28 6 319
1978287N08166 1978 108 WP MM PHYLLIS 1978-10-16 00:00:00 TS 15.5905 160.714 1000 tokyo main 2316 2311 OOOO_____OO___ jtwc_wp WP271978 15.6000 160.700 TD 30 -1 15.5000 160.700 2 1000 0 0 0 15.7000 160.700 1 29 996 15.4000 161.000 TD 25 1000 15.6000 160.700 TC 30 15.6000 160.700 1 30 6 312
1978287N08166 1978 108 WP MM PHYLLIS 1978-10-16 03:00:00 TS 15.7449 160.492 main 2316 2316 PPPP_____PP___ WP271978 15.7650 160.457 TD 32 -1 15.7374 160.500 2 997 0 0 15.7925 160.507 1 33 994 15.5101 160.643 TD 30 995 15.7650 160.457 TC 32 15.7818 160.465 1 32 5 302
1978287N08166 1978 108 WP MM PHYLLIS 1978-10-16 06:00:00 TS 15.8661 160.252 40 994 tokyo main 2326 2316 OOOO_____OP___ jtwc_wp WP271978 15.9000 160.200 TS 35 0 15.9000 160.300 3 40 994 0 9 120 120 0 15.9000 160.300 2 38 992 15.6000 160.300 TS 35 990 15.9000 160.200 TC 35 15.9298 160.222 1 35 5 296
1978287N08166 1978 108 WP MM PHYLLIS 1978-10-16 09:00:00 TS 15.9721 160.000 main 2321 2312 PPPP_____PP___ WP271978 16.0499 159.957 TS 37 0 16.0075 160.065 3 40 992 0 9 122 122 15.9925 160.065 2 43 992 15.6700 159.985 TS 37 987 16.0499 159.957 TC 37 16.0630 159.968 1 37 6 295
1978287N08166 1978 108 WP MM PHYLLIS 1978-10-16 12:00:00 TS 16.1000 159.733 40 990 tokyo main 2317 2313 OOOO_____OO___ jtwc_wp WP271978 16.2000 159.700 TS 40 0 16.1000 159.800 3 40 990 0 9 125 125 0 16.1000 159.800 3 48 992 15.8000 159.700 TS 40 985 16.2000 159.700 TC 40 16.2000 159.700 2 40 6 298
1978287N08166 1978 108 WP MM PHYLLIS 1978-10-16 15:00:00 TS 16.2564 159.452 main 2329 2320 PPPP_____PP___ WP271978 16.3425 159.407 TS 42 0 16.2275 159.515 3 42 987 0 9 125 125 16.2200 159.515 3 48 988 16.0624 159.450 TS 40 985 16.3425 159.407 TC 42 16.3434 159.418 2 42 7 302
1978287N08166 1978 108 WP MM PHYLLIS 1978-10-16 18:00:00 TS 16.4496 159.154 45 985 tokyo main 2326 2326 OOOO_____OP___ jtwc_wp WP271978 16.5000 159.100 TS 45 0 16.4000 159.200 3 45 985 0 9 125 125 0 16.4000 159.200 3 48 985 16.4000 159.200 TS 40 985 16.5000 159.100 TC 45 16.4974 159.122 2 45 7 306
1978287N08166 1978 108 WP MM PHYLLIS 1978-10-16 21:00:00 TS 16.6813 158.840 main 2340 2340 PPPP_____PP___ WP271978 16.6775 158.800 TS 47 0 16.6275 158.843 3 47 982 0 9 137 137 16.6775 158.858 3 53 982 16.7499 158.922 TS 42 982 16.6775 158.800 TC 47 16.6777 158.815 2 47 8 309
1978287N08166 1978 108 WP MM PHYLLIS 1978-10-17 00:00:00 TS 16.9500 158.517 50 980 tokyo main 2359 2348 OOOO_____OO___ jtwc_wp WP271978 16.9000 158.500 TS 50 0 16.9000 158.500 4 50 980 0 9 150 150 0 17.0000 158.500 3 58 980 17.1000 158.600 TS 45 980 16.9000 158.500 TC 50 16.9000 158.500 2 50 8 312
1978287N08166 1978 108 WP MM PHYLLIS 1978-10-17 03:00:00 TS 17.2350 158.204 main 2368 2368 PPPP_____PP___ WP271978 17.1774 158.207 TS 50 0 17.1848 158.250 4 52 980 0 9 150 150 17.2924 158.150 3 58 980 17.4000 158.215 TS 45 977 17.1774 158.207 TC 50 17.1776 158.194 2 51 9 315
1978287N08166 1978 108 WP MM PHYLLIS 1978-10-17 06:00:00 TS 17.5495 157.880 55 980 tokyo main 2389 2389 OOOO_____OP___ jtwc_wp WP271978 17.5000 157.900 TS 50 0 17.5000 158.000 4 55 980 9 60 60 9 150 150 0 17.6000 157.800 3 58 980 17.7000 157.800 TS 45 975 17.5000 157.900 TC 50 17.4972 157.880 2 52 9 316
1978287N08166 1978 108 WP MM PHYLLIS 1978-10-17 09:00:00 TS 17.8926 157.534 main 2418 2418 PPPP_____PP___ WP271978 17.8424 157.565 TS 52 0 17.8350 157.665 4 55 975 9 60 60 9 150 150 17.9424 157.457 3 58 975 18.0499 157.400 TS 47 972 17.8424 157.565 TC 52 17.8432 157.550 2 53 10 316
1978287N08166 1978 108 WP MM PHYLLIS 1978-10-17 12:00:00 TS 18.2500 157.167 55 970 tokyo main 2451 2448 OOOO_____OO___ jtwc_wp WP271978 18.2000 157.200 TS 55 0 18.2000 157.300 4 55 970 9 60 60 9 150 150 0 18.3000 157.100 3 58 970 18.4000 157.000 STS 50 970 18.2000 157.200 TC 55 18.2000 157.200 2 55 10 314
1978287N08166 1978 108 WP MM PHYLLIS 1978-10-17 15:00:00 TS 18.6008 156.771 main 2457 2405 PPPP_____PP___ WP271978 18.5500 156.807 TS 57 0 18.6073 156.965 4 60 967 9 65 65 9 150 150 18.6500 156.700 3 63 967 18.7000 156.577 STS 55 967 18.5500 156.807 TC 57 18.5474 156.769 2 58 10 313
1978287N08166 1978 108 WP MM PHYLLIS 1978-10-17 18:00:00 TS 18.9501 156.371 65 965 tokyo main 2396 2344 OOOO_____OP___ jtwc_wp WP271978 18.9000 156.400 TS 60 0 19.0000 156.600 5 65 965 9 70 70 9 150 150 0 19.0000 156.300 4 68 965 19.0000 156.200 STS 60 965 18.9000 156.400 TC 60 18.9008 156.326 2 62 10 312
1978287N08166 1978 108 WP MM PHYLLIS 1978-10-17 21:00:00 TS 19.2911 155.967 main 2344 2291 PPPP_____PP___ WP271978 19.2501 155.963 TS 65 1 19.2927 156.127 5 67 960 9 70 70 9 150 150 19.3575 155.913 4 72 960 19.3424 155.920 STS 65 960 19.2501 155.963 TC 65 19.2537 155.920 2 66 10 314
1978287N08166 1978 108 WP MM PHYLLIS 1978-10-18 00:00:00 TS 19.6333 155.633 70 955 tokyo main 2291 2243 OOOO_____OO___ jtwc_wp WP271978 19.6000 155.600 TY 70 1 19.6000 155.700 5 70 955 9 70 70 9 150 150 0 19.7000 155.600 4 77 955 19.7000 155.700 T 70 955 19.6000 155.600 TC 70 19.6000 155.600 4 70 9 323
1978287N08166 1978 108 WP MM PHYLLIS 1978-10-18 03:00:00 TS 19.9929 155.416 main 2243 2210 PPPP_____PP___ WP271978 19.9574 155.390 TY 75 1 20.0574 155.433 5 72 955 9 72 72 9 162 162 19.9999 155.405 4 82 954 20.0500 155.463 T 72 952 19.9574 155.390 TC 75 19.9357 155.415 4 75 8 336
1978287N08166 1978 108 WP MM PHYLLIS 1978-10-18 06:00:00 TS 20.3441 155.304 75 955 tokyo main 2210 2184 OOOO_____OP___ jtwc_wp WP271978 20.3000 155.300 TY 80 1 20.5000 155.300 5 75 955 9 75 75 9 175 175 0 20.3000 155.300 5 87 953 20.4000 155.300 T 75 950 20.3000 155.300 TC 80 20.2644 155.322 4 80 7 349
1978287N08166 1978 108 WP MM PHYLLIS 1978-10-18 09:00:00 TS 20.6647 155.268 main 2175 2149 PPPP_____PP___ WP271978 20.6075 155.277 TY 85 2 20.7725 155.270 5 77 955 9 75 75 9 175 175 20.6500 155.220 5 87 954 20.7650 155.270 T 77 952 20.6075 155.277 TC 85 20.5859 155.293 4 85 6 358
1978287N08166 1978 108 WP MM PHYLLIS 1978-10-18 12:00:00 TS 20.9667 155.283 80 955 tokyo main 2149 2132 OOOO_____OO___ jtwc_wp WP271978 20.9000 155.300 TY 90 2 21.0000 155.300 5 80 955 9 75 75 9 175 175 0 21.0000 155.200 5 87 955 21.1000 155.300 T 80 955 20.9000 155.300 TC 90 20.9000 155.300 4 90 6 1
1978287N08166 1978 108 WP MM PHYLLIS 1978-10-18 15:00:00 TS 21.2659 155.285 main 2123 2106 PPPP_____PP___ WP271978 21.2000 155.293 TY 92 2 21.3000 155.300 5 80 955 9 75 75 9 175 175 21.3150 155.235 5 87 955 21.3650 155.293 T 80 955 21.2000 155.293 TC 92 21.2153 155.296 4 91 6 0
1978287N08166 1978 108 WP MM PHYLLIS 1978-10-18 18:00:00 TS 21.5537 155.303 80 955 tokyo main 2098 2081 OOOO_____OP___ jtwc_wp WP271978 21.5000 155.300 TY 95 2 21.6000 155.300 5 80 955 9 75 75 9 175 175 0 21.6000 155.300 5 87 955 21.6000 155.300 T 80 955 21.5000 155.300 TC 95 21.5225 155.320 4 92 6 6
1978287N08166 1978 108 WP MM PHYLLIS 1978-10-18 21:00:00 TS 21.8318 155.341 main 2081 2062 PPPP_____PP___ WP271978 21.8075 155.350 TY 95 2 21.8650 155.293 5 80 955 9 77 67 9 177 162 21.8500 155.350 5 87 955 21.8425 155.342 T 82 955 21.8075 155.350 TC 95 21.8184 155.359 4 93 6 9
1978287N08166 1978 108 WP MM PHYLLIS 1978-10-19 00:00:00 TS 22.1000 155.383 80 955 tokyo main 2062 2046 OOOO_____OO___ jtwc_wp WP271978 22.1000 155.400 TY 95 2 22.1000 155.300 5 80 955 1 80 60 1 180 150 0 22.1000 155.400 5 87 955 22.1000 155.400 ST 85 955 22.1000 155.400 TC 95 22.1000 155.400 4 95 5 8
1978287N08166 1978 108 WP MM PHYLLIS 1978-10-19 03:00:00 TS 22.3620 155.413 main 2037 2021 PPPP_____PP___ WP271978 22.3575 155.400 TY 95 2 22.2925 155.320 5 80 955 1 80 60 1 180 150 22.4000 155.450 5 87 955 22.4000 155.457 ST 85 955 22.3575 155.400 TC 95 22.3643 155.453 4 95 5 6
1978287N08166 1978 108 WP MM PHYLLIS 1978-10-19 06:00:00 TS 22.6192 155.450 80 955 tokyo main 2028 2003 OOOO_____OP___ jtwc_wp WP271978 22.6000 155.400 TY 95 2 22.5000 155.400 5 80 955 1 80 60 1 180 150 0 22.7000 155.500 5 87 955 22.7000 155.500 ST 85 955 22.6000 155.400 TC 95 22.6149 155.502 4 95 5 12
1978287N08166 1978 108 WP MM PHYLLIS 1978-10-19 09:00:00 TS 22.8789 155.524 main 2003 1994 PPPP_____PP___ WP271978 22.8500 155.465 TY 95 2 22.8001 155.615 5 80 955 1 80 60 1 180 150 22.9575 155.557 5 87 955 22.9575 155.515 ST 85 955 22.8500 155.465 TC 95 22.8580 155.525 4 95 5 12
1978287N08166 1978 108 WP MM PHYLLIS 1978-10-19 12:00:00 TS 23.1333 155.567 80 955 tokyo main 1994 1963 OOOO_____OO___ jtwc_wp WP271978 23.1000 155.500 TY 95 2 23.1000 155.800 5 80 955 1 80 60 1 180 150 0 23.2000 155.600 5 87 955 23.2000 155.500 ST 85 955 23.1000 155.500 TC 95 23.1000 155.500 4 95 5 3
1978287N08166 1978 108 WP MM PHYLLIS 1978-10-19 15:00:00 TS 23.3755 155.528 main 1963 1940 PPPP_____PP___ WP271978 23.3500 155.438 TY 95 2 23.3149 155.803 5 80 955 1 80 60 1 180 150 23.4425 155.630 5 87 955 23.4575 155.458 ST 85 955 23.3500 155.438 TC 95 23.3379 155.404 4 93 5 345
1978287N08166 1978 108 WP MM PHYLLIS 1978-10-19 18:00:00 TS 23.6129 155.427 80 955 tokyo main 1940 1916 OOOO_____OP___ jtwc_wp WP271978 23.6000 155.300 TY 95 2 23.5000 155.700 5 80 955 1 80 60 1 180 150 0 23.7000 155.600 5 87 955 23.7000 155.400 ST 85 955 23.6000 155.300 TC 95 23.5776 155.260 4 92 5 335
1978287N08166 1978 108 WP MM PHYLLIS 1978-10-19 21:00:00 TS 23.8472 155.289 main 1916 1878 PPPP_____PP___ WP271978 23.8425 155.108 TY 92 2 23.6850 155.572 5 80 955 1 90 80 1 180 150 24.0000 155.488 5 87 955 23.8850 155.372 ST 82 955 23.8425 155.108 TC 92 23.8285 155.086 4 91 6 330
1978287N08166 1978 108 WP MM PHYLLIS 1978-10-20 00:00:00 TS 24.1000 155.117 80 955 tokyo main 1878 1847 OOOO_____OO___ jtwc_wp WP271978 24.1000 154.900 TY 90 2 23.9000 155.400 5 80 955 9 100 100 1 180 150 0 24.3000 155.300 5 87 955 24.1000 155.300 T 80 955 24.1000 154.900 TC 90 24.1000 154.900 4 90 6 330
1978287N08166 1978 108 WP MM PHYLLIS 1978-10-20 03:00:00 TS 24.3828 154.945 main 1840 1809 PPPP_____PP___ WP271978 24.3849 154.750 TY 87 2 24.1624 155.230 5 80 955 9 100 100 1 180 165 24.5500 155.072 5 87 955 24.4275 155.137 T 77 955 24.3849 154.750 TC 87 24.3872 154.732 4 87 7 330
1978287N08166 1978 108 WP MM PHYLLIS 1978-10-20 06:00:00 TS 24.6996 154.743 80 955 tokyo main 1802 1763 OOOO_____OP___ jtwc_wp WP271978 24.7000 154.600 TY 85 2 24.5000 155.000 5 80 955 9 100 100 9 180 180 0 24.8000 154.800 5 87 955 24.8000 154.900 T 75 955 24.7000 154.600 TC 85 24.6975 154.557 4 85 8 328
1978287N08166 1978 108 WP MM PHYLLIS 1978-10-20 09:00:00 TS 25.0420 154.491 main 1763 1710 PPPP_____PP___ WP271978 25.0350 154.400 TY 82 1 24.9351 154.665 5 75 955 9 90 90 9 180 180 25.0700 154.500 5 82 955 25.1426 154.600 T 72 955 25.0350 154.400 TC 82 25.0341 154.379 4 82 9 327
1978287N08166 1978 108 WP MM PHYLLIS 1978-10-20 12:00:00 TS 25.4167 154.233 70 955 tokyo main 1710 1665 OOOO_____OO___ jtwc_wp WP271978 25.4000 154.200 TY 80 1 25.4000 154.300 5 70 955 9 80 80 9 180 180 0 25.4000 154.200 4 77 955 25.5000 154.300 T 70 955 25.4000 154.200 TC 80 25.4000 154.200 4 80 9 331
1978287N08166 1978 108 WP MM PHYLLIS 1978-10-20 15:00:00 TS 25.8116 154.009 main 1665 1619 PPPP_____PP___ WP271978 25.7849 154.050 TY 80 1 25.8075 153.977 5 70 955 9 80 80 9 180 180 25.8273 153.957 4 77 955 25.8849 154.077 T 70 955 25.7849 154.050 TC 80 25.7800 153.942 4 80 9 334
1978287N08166 1978 108 WP MM PHYLLIS 1978-10-20 18:00:00 TS 26.2316 153.799 70 955 tokyo main 1619 1574 OOOO_____OP___ jtwc_wp WP271978 26.2000 153.900 TY 80 1 26.2000 153.700 5 70 955 9 80 80 9 180 180 0 26.3000 153.700 4 77 955 26.3000 153.900 T 70 955 26.2000 153.900 TC 80 26.1899 153.696 4 80 9 334
1978287N08166 1978 108 WP MM PHYLLIS 1978-10-20 21:00:00 TS 26.6629 153.554 main 1566 1521 PPPP_____PP___ WP271978 26.6351 153.656 TY 80 1 26.5999 153.418 5 70 955 9 80 80 9 180 180 26.7427 153.343 4 77 955 26.7350 153.728 T 70 955 26.6351 153.656 TC 80 26.6297 153.527 4 80 10 338
1978287N08166 1978 108 WP MM PHYLLIS 1978-10-21 00:00:00 TS 27.1167 153.400 70 955 tokyo main 1521 1484 OOOO_____OO___ jtwc_wp WP271978 27.1000 153.500 TY 80 1 27.0000 153.300 5 70 955 9 80 80 9 180 180 0 27.2000 153.000 4 77 955 27.2000 153.600 T 70 955 27.1000 153.500 TC 80 27.1000 153.500 4 80 9 350
1978287N08166 1978 108 WP MM PHYLLIS 1978-10-21 03:00:00 TS 27.5800 153.367 main 1484 1463 PPPP_____PP___ WP271978 27.5846 153.538 TY 77 1 27.3850 153.467 5 70 955 9 80 80 9 180 180 27.7071 152.659 4 72 955 27.6923 153.461 T 70 955 27.5846 153.538 TC 77 27.5264 153.538 4 77 10 8
1978287N08166 1978 108 WP MM PHYLLIS 1978-10-21 06:00:00 TS 28.0652 153.541 70 955 tokyo main 1456 1451 OOOO_____OP___ jtwc_wp WP271978 28.1000 153.800 TY 75 1 27.8000 153.800 5 70 955 9 80 80 9 180 180 0 28.2000 152.600 4 68 955 28.2000 153.500 T 70 955 28.1000 153.800 TC 75 27.9914 153.744 4 75 11 26
1978287N08166 1978 108 WP MM PHYLLIS 1978-10-21 09:00:00 TS 28.5569 153.911 main 1453 1453 PPPP_____PP___ WP271978 28.6040 154.210 TY 72 1 28.2462 154.033 5 70 955 9 80 80 9 180 180 28.6295 153.019 4 68 955 28.7220 153.815 T 65 957 28.6040 154.210 TC 72 28.5360 154.177 4 72 14 41
1978287N08166 1978 108 WP MM PHYLLIS 1978-10-21 12:00:00 TS 29.1000 154.567 70 955 tokyo main 1477 1471 OOOO_____OO___ jtwc_wp WP271978 29.2000 154.900 TY 70 1 28.8000 154.500 5 70 955 9 80 80 9 180 180 0 29.0000 153.800 4 68 955 29.2000 154.400 STS 60 960 29.2000 154.900 TC 70 29.2000 154.900 4 70 17 51
1978287N08166 1978 108 WP MM PHYLLIS 1978-10-21 15:00:00 TS 29.6545 155.447 main 1508 1508 PPPP_____PP___ WP271978 29.9233 155.831 TY 67 1 29.4591 155.373 5 67 957 9 65 65 9 152 152 29.1763 154.607 4 68 957 29.5114 155.126 STS 60 960 29.9233 155.831 TC 67 29.9334 155.914 4 67 22 55
1978287N08166 1978 108 WP MM PHYLLIS 1978-10-21 18:00:00 TS 30.3644 156.655 65 960 tokyo main 1581 1581 OOOO_____OP___ jtwc_wp WP271978 30.8000 157.100 TY 65 1 30.3000 156.600 5 65 960 9 50 50 9 125 125 0 29.6000 155.800 4 68 960 29.9000 156.100 STS 60 960 30.8000 157.100 TC 65 30.7867 157.230 4 65 29 55
1978287N08166 1978 108 WP MM PHYLLIS 1978-10-21 21:00:00 TS 31.2857 158.180 main 1671 1671 PPPP_____PP___ WP271978 31.7834 158.704 TY 62 0 31.3222 157.990 5 62 962 9 50 50 9 125 125 30.6216 157.578 4 63 962 30.4330 157.324 STS 57 962 31.7834 158.704 TC 62 31.7708 158.781 4 62 34 54
1978287N08166 1978 108 WP MM PHYLLIS 1978-10-22 00:00:00 TS 32.3909 159.882 60 965 tokyo main 1709 1668 OOOO_____OO___ jtwc_wp WP271978 32.9000 160.500 TS 60 0 32.5000 159.700 4 60 965 9 50 50 9 125 125 0 32.0000 159.700 3 58 965 31.4000 158.700 STS 55 965 32.9000 160.500 TC 60 32.9000 160.500 2 60 38 50
1978287N08166 1978 108 WP MM PHYLLIS 1978-10-22 03:00:00 TS 33.6843 161.606 main 1665 1638 PPPP_____PP___ WP271978 34.1255 162.260 TS 55 0 33.6529 161.754 4 55 967 9 9 122 122 33.4229 161.819 3 53 967 33.0390 159.860 STS 52 967 34.1255 162.260 TC 55 34.1811 162.338 2 41 48
1978287N08166 1978 108 WP MM PHYLLIS 1978-10-22 06:00:00 TS 35.1581 163.585 50 970 tokyo main 1637 1633 OOOO_____OP___ jtwc_wp WP271978 35.4000 164.000 TD 50 0 35.0000 164.000 4 50 970 0 9 120 120 0 35.0000 164.000 3 48 970 35.0000 161.500 STS 50 970 35.4000 164.000 TC 50 35.5764 164.286 2 47 48
1978287N08166 1978 108 WP MM PHYLLIS 1978-10-22 09:00:00 TS 36.7776 165.879 main 1646 1629 _PPP______P___ WP271978 TD -1 36.7087 166.221 4 50 972 0 9 160 160 36.6874 166.169 3 48 970 36.8395 164.147 STS 47 972 TC 37.0341 166.344 2 51 49
1978287N08166 1978 108 WP MM PHYLLIS 1978-10-22 12:00:00 TS 38.4667 168.356 50 975 tokyo main 1629 1617 _OOO______O___ 38.5000 168.500 4 50 975 0 9 200 200 0 38.4000 168.400 3 48 970 38.5000 167.500 TS 45 975 38.5000 168.500 6 50 50
1978287N08166 1978 108 WP MM PHYLLIS 1978-10-22 15:00:00 TS 39.9449 170.771 main 1628 1612 _PP___________ 39.9170 170.786 4 47 977 0 9 200 200 40.0006 170.742 3 43 975 TS 6 48 51
1978287N08166 1978 108 WP MM PHYLLIS 1978-10-22 18:00:00 TS 41.5000 173.200 45 980 tokyo main 1611 1531 _OO___________ 41.5000 173.200 3 45 980 0 9 200 200 0 41.5000 173.200 2 38 980 6 53 47
1978287N08166 1978 108 WP MM PHYLLIS 1978-10-22 21:00:00 TS 43.6062 175.928 main 1517 1175 _P____________ 43.6062 175.928 3 980 0 9 2 6 61 43
1978287N08166 1978 108 WP MM PHYLLIS 1978-10-23 00:00:00 ET 46.0000 179.000 980 tokyo main 1156 _O____________ 46.0000 179.000 6 980 0 0 0 64 42

Digital Typhoon Data and Search

About IBTrACS Database

This database is a web-friendly format of International Best Track Archive for Climate Stewardship (IBTrACS), a global best track data archive curated by NOAA dating back to 1842.

Updated: 2021-10-08